sensor_id;sensor_type;location;lat;lon;timestamp;P1;durP1;ratioP1;P2;durP2;ratioP2
30249;SDS011;17064;47.974;13.826;2022-11-20T00:01:59;67.93;;;24.05;;
30249;SDS011;17064;47.974;13.826;2022-11-20T00:07:00;65.00;;;23.05;;
30249;SDS011;17064;47.974;13.826;2022-11-20T00:12:01;55.08;;;21.77;;
30249;SDS011;17064;47.974;13.826;2022-11-20T00:17:01;59.58;;;21.08;;
30249;SDS011;17064;47.974;13.826;2022-11-20T00:22:02;61.97;;;23.90;;
30249;SDS011;17064;47.974;13.826;2022-11-20T00:27:03;69.60;;;25.13;;
30249;SDS011;17064;47.974;13.826;2022-11-20T00:32:03;66.78;;;23.63;;
30249;SDS011;17064;47.974;13.826;2022-11-20T00:37:04;61.58;;;24.38;;
30249;SDS011;17064;47.974;13.826;2022-11-20T00:42:05;62.20;;;23.63;;
30249;SDS011;17064;47.974;13.826;2022-11-20T00:47:05;60.95;;;22.30;;
30249;SDS011;17064;47.974;13.826;2022-11-20T00:52:06;54.58;;;21.60;;
30249;SDS011;17064;47.974;13.826;2022-11-20T00:57:07;56.60;;;20.90;;
30249;SDS011;17064;47.974;13.826;2022-11-20T01:02:08;71.93;;;24.77;;
30249;SDS011;17064;47.974;13.826;2022-11-20T01:07:08;58.83;;;22.40;;
30249;SDS011;17064;47.974;13.826;2022-11-20T01:12:09;54.78;;;21.25;;
30249;SDS011;17064;47.974;13.826;2022-11-20T01:17:10;58.50;;;22.23;;
30249;SDS011;17064;47.974;13.826;2022-11-20T01:22:10;52.33;;;22.27;;
30249;SDS011;17064;47.974;13.826;2022-11-20T01:27:11;65.60;;;23.60;;
30249;SDS011;17064;47.974;13.826;2022-11-20T01:32:11;68.00;;;25.02;;
30249;SDS011;17064;47.974;13.826;2022-11-20T01:37:12;64.63;;;23.25;;
30249;SDS011;17064;47.974;13.826;2022-11-20T01:42:13;73.95;;;26.75;;
30249;SDS011;17064;47.974;13.826;2022-11-20T01:47:39;68.45;;;23.88;;
30249;SDS011;17064;47.974;13.826;2022-11-20T01:53:18;63.25;;;23.13;;
30249;SDS011;17064;47.974;13.826;2022-11-20T01:58:13;64.10;;;22.25;;
30249;SDS011;17064;47.974;13.826;2022-11-20T02:03:16;78.43;;;28.33;;
30249;SDS011;17064;47.974;13.826;2022-11-20T02:08:18;70.85;;;25.38;;
30249;SDS011;17064;47.974;13.826;2022-11-20T02:13:21;72.90;;;26.05;;
30249;SDS011;17064;47.974;13.826;2022-11-20T02:18:41;62.42;;;22.90;;
30249;SDS011;17064;47.974;13.826;2022-11-20T02:29:04;54.92;;;21.25;;
30249;SDS011;17064;47.974;13.826;2022-11-20T02:34:04;66.07;;;24.38;;
30249;SDS011;17064;47.974;13.826;2022-11-20T02:39:05;67.00;;;24.50;;
30249;SDS011;17064;47.974;13.826;2022-11-20T02:44:06;63.42;;;22.95;;
30249;SDS011;17064;47.974;13.826;2022-11-20T02:49:07;76.93;;;25.63;;
30249;SDS011;17064;47.974;13.826;2022-11-20T02:54:07;66.13;;;24.02;;
30249;SDS011;17064;47.974;13.826;2022-11-20T02:59:08;62.38;;;23.38;;
30249;SDS011;17064;47.974;13.826;2022-11-20T03:04:09;56.40;;;19.52;;
30249;SDS011;17064;47.974;13.826;2022-11-20T03:09:10;53.03;;;20.27;;
30249;SDS011;17064;47.974;13.826;2022-11-20T03:14:10;55.63;;;20.20;;
30249;SDS011;17064;47.974;13.826;2022-11-20T03:19:11;45.10;;;17.58;;
30249;SDS011;17064;47.974;13.826;2022-11-20T03:24:12;40.78;;;16.45;;
30249;SDS011;17064;47.974;13.826;2022-11-20T03:29:14;33.95;;;14.40;;
30249;SDS011;17064;47.974;13.826;2022-11-20T03:34:14;26.38;;;11.00;;
30249;SDS011;17064;47.974;13.826;2022-11-20T03:39:15;24.42;;;11.00;;
30249;SDS011;17064;47.974;13.826;2022-11-20T03:44:16;25.95;;;10.70;;
30249;SDS011;17064;47.974;13.826;2022-11-20T03:49:16;23.85;;;10.18;;
30249;SDS011;17064;47.974;13.826;2022-11-20T03:54:18;25.35;;;10.52;;
30249;SDS011;17064;47.974;13.826;2022-11-20T03:59:18;21.58;;;9.63;;
30249;SDS011;17064;47.974;13.826;2022-11-20T04:04:22;18.83;;;8.90;;
30249;SDS011;17064;47.974;13.826;2022-11-20T04:09:23;13.35;;;7.80;;
30249;SDS011;17064;47.974;13.826;2022-11-20T04:14:23;15.13;;;7.88;;
30249;SDS011;17064;47.974;13.826;2022-11-20T04:19:24;10.75;;;6.18;;
30249;SDS011;17064;47.974;13.826;2022-11-20T04:24:25;11.13;;;5.68;;
30249;SDS011;17064;47.974;13.826;2022-11-20T04:29:26;9.00;;;4.97;;
30249;SDS011;17064;47.974;13.826;2022-11-20T04:34:27;10.80;;;4.32;;
30249;SDS011;17064;47.974;13.826;2022-11-20T04:39:27;5.57;;;4.10;;
30249;SDS011;17064;47.974;13.826;2022-11-20T04:44:28;5.68;;;3.80;;
30249;SDS011;17064;47.974;13.826;2022-11-20T04:49:29;5.72;;;3.38;;
30249;SDS011;17064;47.974;13.826;2022-11-20T04:54:31;4.68;;;3.42;;
30249;SDS011;17064;47.974;13.826;2022-11-20T04:59:32;7.65;;;3.28;;
30249;SDS011;17064;47.974;13.826;2022-11-20T05:04:32;3.70;;;2.80;;
30249;SDS011;17064;47.974;13.826;2022-11-20T05:09:33;6.95;;;2.92;;
30249;SDS011;17064;47.974;13.826;2022-11-20T05:14:34;6.78;;;2.53;;
30249;SDS011;17064;47.974;13.826;2022-11-20T05:19:34;5.63;;;2.67;;
30249;SDS011;17064;47.974;13.826;2022-11-20T05:24:35;6.10;;;3.58;;
30249;SDS011;17064;47.974;13.826;2022-11-20T05:29:36;5.15;;;3.38;;
30249;SDS011;17064;47.974;13.826;2022-11-20T05:34:36;7.03;;;3.00;;
30249;SDS011;17064;47.974;13.826;2022-11-20T05:39:37;3.85;;;2.97;;
30249;SDS011;17064;47.974;13.826;2022-11-20T05:44:38;5.82;;;3.33;;
30249;SDS011;17064;47.974;13.826;2022-11-20T05:49:39;5.72;;;3.42;;
30249;SDS011;17064;47.974;13.826;2022-11-20T05:54:40;4.72;;;3.88;;
30249;SDS011;17064;47.974;13.826;2022-11-20T05:59:40;6.05;;;3.55;;
30249;SDS011;17064;47.974;13.826;2022-11-20T06:04:41;6.63;;;3.72;;
30249;SDS011;17064;47.974;13.826;2022-11-20T06:09:42;4.75;;;3.20;;
30249;SDS011;17064;47.974;13.826;2022-11-20T06:14:42;4.68;;;3.42;;
30249;SDS011;17064;47.974;13.826;2022-11-20T06:19:43;6.68;;;3.72;;
30249;SDS011;17064;47.974;13.826;2022-11-20T06:24:44;6.07;;;3.55;;
30249;SDS011;17064;47.974;13.826;2022-11-20T06:29:44;7.57;;;3.28;;
30249;SDS011;17064;47.974;13.826;2022-11-20T06:34:45;8.80;;;4.35;;
30249;SDS011;17064;47.974;13.826;2022-11-20T06:39:46;10.40;;;6.22;;
30249;SDS011;17064;47.974;13.826;2022-11-20T06:44:46;8.25;;;4.43;;
30249;SDS011;17064;47.974;13.826;2022-11-20T06:49:47;6.40;;;4.00;;
30249;SDS011;17064;47.974;13.826;2022-11-20T06:54:48;10.35;;;4.40;;
30249;SDS011;17064;47.974;13.826;2022-11-20T06:59:48;5.07;;;3.38;;
30249;SDS011;17064;47.974;13.826;2022-11-20T07:04:49;7.63;;;4.68;;
30249;SDS011;17064;47.974;13.826;2022-11-20T07:09:50;7.78;;;3.60;;
30249;SDS011;17064;47.974;13.826;2022-11-20T07:14:50;6.75;;;3.67;;
30249;SDS011;17064;47.974;13.826;2022-11-20T07:19:51;5.85;;;2.97;;
30249;SDS011;17064;47.974;13.826;2022-11-20T07:24:51;5.38;;;2.85;;
30249;SDS011;17064;47.974;13.826;2022-11-20T07:29:52;7.60;;;4.70;;
30249;SDS011;17064;47.974;13.826;2022-11-20T07:34:53;5.18;;;3.30;;
30249;SDS011;17064;47.974;13.826;2022-11-20T07:39:54;5.40;;;3.25;;
30249;SDS011;17064;47.974;13.826;2022-11-20T07:44:54;6.05;;;2.88;;
30249;SDS011;17064;47.974;13.826;2022-11-20T07:49:55;5.85;;;2.90;;
30249;SDS011;17064;47.974;13.826;2022-11-20T07:54:56;4.55;;;2.83;;
30249;SDS011;17064;47.974;13.826;2022-11-20T07:59:56;9.52;;;3.42;;
30249;SDS011;17064;47.974;13.826;2022-11-20T08:04:57;3.72;;;2.53;;
30249;SDS011;17064;47.974;13.826;2022-11-20T08:09:58;3.88;;;2.10;;
30249;SDS011;17064;47.974;13.826;2022-11-20T08:14:58;3.58;;;2.28;;
30249;SDS011;17064;47.974;13.826;2022-11-20T08:19:59;2.67;;;1.67;;
30249;SDS011;17064;47.974;13.826;2022-11-20T08:25:00;3.80;;;1.83;;
30249;SDS011;17064;47.974;13.826;2022-11-20T08:30:01;7.80;;;2.00;;
30249;SDS011;17064;47.974;13.826;2022-11-20T08:35:02;6.28;;;1.90;;
30249;SDS011;17064;47.974;13.826;2022-11-20T08:40:03;3.33;;;2.03;;
30249;SDS011;17064;47.974;13.826;2022-11-20T08:45:04;4.80;;;2.40;;
30249;SDS011;17064;47.974;13.826;2022-11-20T08:50:05;4.88;;;2.13;;
30249;SDS011;17064;47.974;13.826;2022-11-20T08:55:06;3.17;;;1.90;;
30249;SDS011;17064;47.974;13.826;2022-11-20T09:00:08;2.42;;;1.52;;
30249;SDS011;17064;47.974;13.826;2022-11-20T09:05:10;3.05;;;1.88;;
30249;SDS011;17064;47.974;13.826;2022-11-20T09:10:11;1.85;;;1.50;;
30249;SDS011;17064;47.974;13.826;2022-11-20T09:15:12;3.28;;;1.35;;
30249;SDS011;17064;47.974;13.826;2022-11-20T09:20:13;1.35;;;1.20;;
30249;SDS011;17064;47.974;13.826;2022-11-20T09:25:14;4.35;;;2.05;;
30249;SDS011;17064;47.974;13.826;2022-11-20T09:30:15;4.25;;;1.50;;
30249;SDS011;17064;47.974;13.826;2022-11-20T09:35:16;4.65;;;1.33;;
30249;SDS011;17064;47.974;13.826;2022-11-20T09:40:22;2.05;;;1.25;;
30249;SDS011;17064;47.974;13.826;2022-11-20T09:56:03;2.13;;;1.20;;
30249;SDS011;17064;47.974;13.826;2022-11-20T10:01:09;2.95;;;0.98;;
30249;SDS011;17064;47.974;13.826;2022-11-20T10:06:18;0.67;;;0.53;;
30249;SDS011;17064;47.974;13.826;2022-11-20T10:11:48;2.05;;;0.80;;
30249;SDS011;17064;47.974;13.826;2022-11-20T10:17:15;1.70;;;0.85;;
30249;SDS011;17064;47.974;13.826;2022-11-20T10:22:30;2.00;;;0.80;;
30249;SDS011;17064;47.974;13.826;2022-11-20T10:33:13;1.27;;;0.93;;
30249;SDS011;17064;47.974;13.826;2022-11-20T10:38:23;2.08;;;0.75;;
30249;SDS011;17064;47.974;13.826;2022-11-20T10:58:50;1.65;;;0.93;;
30249;SDS011;17064;47.974;13.826;2022-11-20T11:04:07;2.80;;;0.98;;
30249;SDS011;17064;47.974;13.826;2022-11-20T11:09:24;1.13;;;0.90;;
30249;SDS011;17064;47.974;13.826;2022-11-20T11:14:41;0.77;;;0.63;;
30249;SDS011;17064;47.974;13.826;2022-11-20T11:19:43;0.75;;;0.50;;
30249;SDS011;17064;47.974;13.826;2022-11-20T11:24:51;0.50;;;0.50;;
30249;SDS011;17064;47.974;13.826;2022-11-20T11:30:01;1.13;;;0.60;;
30249;SDS011;17064;47.974;13.826;2022-11-20T11:35:23;0.93;;;0.50;;
30249;SDS011;17064;47.974;13.826;2022-11-20T11:40:26;0.80;;;0.40;;
30249;SDS011;17064;47.974;13.826;2022-11-20T11:45:29;0.52;;;0.52;;
30249;SDS011;17064;47.974;13.826;2022-11-20T11:50:30;0.70;;;0.52;;
30249;SDS011;17064;47.974;13.826;2022-11-20T11:56:16;0.60;;;0.60;;
30249;SDS011;17064;47.974;13.826;2022-11-20T12:06:17;1.40;;;0.88;;
30249;SDS011;17064;47.974;13.826;2022-11-20T12:12:04;0.93;;;0.65;;
30249;SDS011;17064;47.974;13.826;2022-11-20T12:16:42;1.45;;;0.60;;
30249;SDS011;17064;47.974;13.826;2022-11-20T12:48:42;0.80;;;0.52;;
30249;SDS011;17064;47.974;13.826;2022-11-20T13:09:46;1.05;;;0.30;;
30249;SDS011;17064;47.974;13.826;2022-11-20T13:20:26;0.65;;;0.30;;
30249;SDS011;17064;47.974;13.826;2022-11-20T13:25:32;0.30;;;0.30;;
30249;SDS011;17064;47.974;13.826;2022-11-20T13:30:34;0.40;;;0.30;;
30249;SDS011;17064;47.974;13.826;2022-11-20T13:35:37;1.67;;;0.50;;
30249;SDS011;17064;47.974;13.826;2022-11-20T13:40:52;1.08;;;0.52;;
30249;SDS011;17064;47.974;13.826;2022-11-20T13:46:23;0.43;;;0.30;;
30249;SDS011;17064;47.974;13.826;2022-11-20T13:51:52;1.38;;;1.10;;
30249;SDS011;17064;47.974;13.826;2022-11-20T14:02:35;1.50;;;0.50;;
30249;SDS011;17064;47.974;13.826;2022-11-20T14:07:40;1.20;;;0.60;;
30249;SDS011;17064;47.974;13.826;2022-11-20T14:12:42;0.35;;;0.25;;
30249;SDS011;17064;47.974;13.826;2022-11-20T14:17:43;0.50;;;0.30;;
30249;SDS011;17064;47.974;13.826;2022-11-20T14:22:50;0.38;;;0.30;;
30249;SDS011;17064;47.974;13.826;2022-11-20T14:27:59;1.20;;;0.88;;
30249;SDS011;17064;47.974;13.826;2022-11-20T14:33:02;6.88;;;2.83;;
30249;SDS011;17064;47.974;13.826;2022-11-20T14:38:04;0.55;;;0.55;;
30249;SDS011;17064;47.974;13.826;2022-11-20T14:43:25;0.70;;;0.40;;
30249;SDS011;17064;47.974;13.826;2022-11-20T14:49:01;1.52;;;0.85;;
30249;SDS011;17064;47.974;13.826;2022-11-20T14:54:18;2.47;;;0.88;;
30249;SDS011;17064;47.974;13.826;2022-11-20T14:59:40;1.65;;;0.70;;
30249;SDS011;17064;47.974;13.826;2022-11-20T15:04:48;3.05;;;0.80;;
30249;SDS011;17064;47.974;13.826;2022-11-20T15:10:04;0.70;;;0.60;;
30249;SDS011;17064;47.974;13.826;2022-11-20T15:15:10;2.22;;;1.40;;
30249;SDS011;17064;47.974;13.826;2022-11-20T15:20:16;2.90;;;1.13;;
30249;SDS011;17064;47.974;13.826;2022-11-20T15:25:18;2.60;;;0.70;;
30249;SDS011;17064;47.974;13.826;2022-11-20T15:30:20;2.13;;;0.77;;
30249;SDS011;17064;47.974;13.826;2022-11-20T15:35:22;2.78;;;0.70;;
30249;SDS011;17064;47.974;13.826;2022-11-20T15:40:22;2.75;;;0.70;;
30249;SDS011;17064;47.974;13.826;2022-11-20T15:45:23;0.50;;;0.40;;
30249;SDS011;17064;47.974;13.826;2022-11-20T15:50:32;2.35;;;0.50;;
30249;SDS011;17064;47.974;13.826;2022-11-20T15:55:37;2.55;;;0.95;;
30249;SDS011;17064;47.974;13.826;2022-11-20T16:00:38;1.75;;;0.82;;
30249;SDS011;17064;47.974;13.826;2022-11-20T16:05:39;0.93;;;0.80;;
30249;SDS011;17064;47.974;13.826;2022-11-20T16:10:41;1.88;;;0.90;;
30249;SDS011;17064;47.974;13.826;2022-11-20T16:15:42;1.05;;;0.60;;
30249;SDS011;17064;47.974;13.826;2022-11-20T16:20:53;2.15;;;0.73;;
30249;SDS011;17064;47.974;13.826;2022-11-20T16:25:54;2.33;;;0.90;;
30249;SDS011;17064;47.974;13.826;2022-11-20T16:30:55;1.17;;;0.70;;
30249;SDS011;17064;47.974;13.826;2022-11-20T16:35:56;2.05;;;0.60;;
30249;SDS011;17064;47.974;13.826;2022-11-20T16:41:00;2.08;;;0.40;;
30249;SDS011;17064;47.974;13.826;2022-11-20T16:46:03;1.60;;;0.30;;
30249;SDS011;17064;47.974;13.826;2022-11-20T16:51:04;5.28;;;1.73;;
30249;SDS011;17064;47.974;13.826;2022-11-20T16:56:13;0.57;;;0.20;;
30249;SDS011;17064;47.974;13.826;2022-11-20T17:01:17;3.67;;;0.40;;
30249;SDS011;17064;47.974;13.826;2022-11-20T17:06:21;1.67;;;0.65;;
30249;SDS011;17064;47.974;13.826;2022-11-20T17:11:24;0.60;;;0.40;;
30249;SDS011;17064;47.974;13.826;2022-11-20T17:16:26;0.40;;;0.30;;
30249;SDS011;17064;47.974;13.826;2022-11-20T17:21:28;0.20;;;0.20;;
30249;SDS011;17064;47.974;13.826;2022-11-20T17:26:30;1.60;;;0.50;;
30249;SDS011;17064;47.974;13.826;2022-11-20T17:31:33;1.40;;;0.47;;
30249;SDS011;17064;47.974;13.826;2022-11-20T17:36:35;1.00;;;0.60;;
30249;SDS011;17064;47.974;13.826;2022-11-20T17:41:37;1.05;;;0.70;;
30249;SDS011;17064;47.974;13.826;2022-11-20T17:46:39;2.65;;;0.65;;
30249;SDS011;17064;47.974;13.826;2022-11-20T17:51:40;0.80;;;0.75;;
30249;SDS011;17064;47.974;13.826;2022-11-20T17:56:41;2.25;;;0.70;;
30249;SDS011;17064;47.974;13.826;2022-11-20T18:02:01;1.38;;;0.70;;
30249;SDS011;17064;47.974;13.826;2022-11-20T18:07:02;1.42;;;0.88;;
30249;SDS011;17064;47.974;13.826;2022-11-20T18:12:04;2.65;;;1.08;;
30249;SDS011;17064;47.974;13.826;2022-11-20T18:17:06;3.50;;;0.95;;
30249;SDS011;17064;47.974;13.826;2022-11-20T18:22:11;2.08;;;0.90;;
30249;SDS011;17064;47.974;13.826;2022-11-20T18:27:15;2.13;;;0.65;;
30249;SDS011;17064;47.974;13.826;2022-11-20T18:32:19;1.35;;;0.73;;
30249;SDS011;17064;47.974;13.826;2022-11-20T18:37:21;1.52;;;0.60;;
30249;SDS011;17064;47.974;13.826;2022-11-20T18:42:22;2.35;;;0.93;;
30249;SDS011;17064;47.974;13.826;2022-11-20T18:47:43;0.95;;;0.70;;
30249;SDS011;17064;47.974;13.826;2022-11-20T18:52:46;0.82;;;0.57;;
30249;SDS011;17064;47.974;13.826;2022-11-20T18:57:47;0.90;;;0.70;;
30249;SDS011;17064;47.974;13.826;2022-11-20T19:02:51;1.13;;;0.90;;
30249;SDS011;17064;47.974;13.826;2022-11-20T19:07:53;2.88;;;0.98;;
30249;SDS011;17064;47.974;13.826;2022-11-20T19:12:54;0.80;;;0.63;;
30249;SDS011;17064;47.974;13.826;2022-11-20T19:17:55;1.88;;;0.85;;
30249;SDS011;17064;47.974;13.826;2022-11-20T19:22:57;1.43;;;0.67;;
30249;SDS011;17064;47.974;13.826;2022-11-20T19:27:59;1.15;;;0.80;;
30249;SDS011;17064;47.974;13.826;2022-11-20T19:33:01;1.80;;;0.70;;
30249;SDS011;17064;47.974;13.826;2022-11-20T19:38:02;0.98;;;0.52;;
30249;SDS011;17064;47.974;13.826;2022-11-20T19:43:04;1.95;;;0.60;;
30249;SDS011;17064;47.974;13.826;2022-11-20T19:48:05;1.75;;;0.77;;
30249;SDS011;17064;47.974;13.826;2022-11-20T19:53:07;1.27;;;0.80;;
30249;SDS011;17064;47.974;13.826;2022-11-20T19:58:10;1.27;;;0.82;;
30249;SDS011;17064;47.974;13.826;2022-11-20T20:03:12;2.00;;;0.80;;
30249;SDS011;17064;47.974;13.826;2022-11-20T20:08:14;2.55;;;1.00;;
30249;SDS011;17064;47.974;13.826;2022-11-20T20:13:15;1.35;;;0.75;;
30249;SDS011;17064;47.974;13.826;2022-11-20T20:18:16;1.33;;;0.60;;
30249;SDS011;17064;47.974;13.826;2022-11-20T20:23:17;3.97;;;0.90;;
30249;SDS011;17064;47.974;13.826;2022-11-20T20:28:18;1.08;;;0.80;;
30249;SDS011;17064;47.974;13.826;2022-11-20T20:33:19;1.10;;;0.70;;
30249;SDS011;17064;47.974;13.826;2022-11-20T20:38:21;1.58;;;0.80;;
30249;SDS011;17064;47.974;13.826;2022-11-20T20:43:22;1.50;;;0.70;;
30249;SDS011;17064;47.974;13.826;2022-11-20T20:48:24;1.10;;;0.57;;
30249;SDS011;17064;47.974;13.826;2022-11-20T20:53:25;1.65;;;0.80;;
30249;SDS011;17064;47.974;13.826;2022-11-20T20:58:28;1.90;;;0.68;;
30249;SDS011;17064;47.974;13.826;2022-11-20T21:03:30;1.73;;;0.80;;
30249;SDS011;17064;47.974;13.826;2022-11-20T21:08:33;1.83;;;0.80;;
30249;SDS011;17064;47.974;13.826;2022-11-20T21:13:34;1.38;;;0.90;;
30249;SDS011;17064;47.974;13.826;2022-11-20T21:18:37;2.53;;;1.33;;
30249;SDS011;17064;47.974;13.826;2022-11-20T21:23:38;3.55;;;1.48;;
30249;SDS011;17064;47.974;13.826;2022-11-20T21:28:40;4.70;;;2.05;;
30249;SDS011;17064;47.974;13.826;2022-11-20T21:33:42;3.35;;;1.38;;
30249;SDS011;17064;47.974;13.826;2022-11-20T21:38:47;3.17;;;1.20;;
30249;SDS011;17064;47.974;13.826;2022-11-20T21:43:50;1.93;;;1.10;;
30249;SDS011;17064;47.974;13.826;2022-11-20T21:48:51;4.35;;;1.63;;
30249;SDS011;17064;47.974;13.826;2022-11-20T21:53:53;3.95;;;1.55;;
30249;SDS011;17064;47.974;13.826;2022-11-20T21:58:54;2.70;;;1.25;;
30249;SDS011;17064;47.974;13.826;2022-11-20T22:03:59;2.78;;;1.45;;
30249;SDS011;17064;47.974;13.826;2022-11-20T22:09:01;6.75;;;2.63;;
30249;SDS011;17064;47.974;13.826;2022-11-20T22:14:02;18.15;;;6.65;;
30249;SDS011;17064;47.974;13.826;2022-11-20T22:19:22;8.48;;;4.22;;
30249;SDS011;17064;47.974;13.826;2022-11-20T22:24:22;2.45;;;1.83;;
30249;SDS011;17064;47.974;13.826;2022-11-20T22:29:23;9.13;;;3.45;;
30249;SDS011;17064;47.974;13.826;2022-11-20T22:34:24;15.85;;;5.20;;
30249;SDS011;17064;47.974;13.826;2022-11-20T22:39:25;25.25;;;7.50;;
30249;SDS011;17064;47.974;13.826;2022-11-20T22:44:25;66.43;;;18.92;;
30249;SDS011;17064;47.974;13.826;2022-11-20T22:49:26;5.55;;;2.45;;
30249;SDS011;17064;47.974;13.826;2022-11-20T22:54:27;3.30;;;1.65;;
30249;SDS011;17064;47.974;13.826;2022-11-20T22:59:28;4.55;;;1.98;;
30249;SDS011;17064;47.974;13.826;2022-11-20T23:04:28;4.15;;;2.22;;
30249;SDS011;17064;47.974;13.826;2022-11-20T23:09:29;1.55;;;0.90;;
30249;SDS011;17064;47.974;13.826;2022-11-20T23:14:30;0.95;;;0.77;;
30249;SDS011;17064;47.974;13.826;2022-11-20T23:19:30;0.98;;;0.88;;
30249;SDS011;17064;47.974;13.826;2022-11-20T23:24:31;1.52;;;0.80;;
30249;SDS011;17064;47.974;13.826;2022-11-20T23:29:32;1.70;;;0.90;;
30249;SDS011;17064;47.974;13.826;2022-11-20T23:34:32;1.85;;;0.88;;
30249;SDS011;17064;47.974;13.826;2022-11-20T23:39:33;1.67;;;0.80;;
30249;SDS011;17064;47.974;13.826;2022-11-20T23:44:34;1.40;;;1.00;;
30249;SDS011;17064;47.974;13.826;2022-11-20T23:49:34;4.25;;;0.85;;
30249;SDS011;17064;47.974;13.826;2022-11-20T23:54:35;1.08;;;0.65;;
30249;SDS011;17064;47.974;13.826;2022-11-20T23:59:36;3.35;;;0.93;;
